No particular awareness of the weather is required.    There are no Weather-warnings


Meteo18 Weather Cam more information Meteo18 Weather Cam


Thunder radar more information blitzortung!


Rain radar more information rain snow radar


Visit our other weather sites:

Template documentation
and downloads

And another site



Weather Underground History page Text

Daily Summary for November 12, 2016 Units:  Metric    English   Both
« Previous Day
Next Day »
Daily Weekly Monthly Yearly Custom
  High: Low: Average:
Temperature: 5.5 °C -2.5 °C 2 °C
Dew Point: 4.8 °C -3.0 °C 1.4 °C
Humidity: 97 % 92 % 96 %
Wind Speed: 4.8 km/h 0.0 km/h 0.3 km/h
Wind Gust: 8.0 km/h - -
Wind:- - South
Pressure: 1024.9 hPa 1021.2 hPa -
Precipitation: 4.6 mm    
Historical Graphs
 
 
Tabular Data for November 12, 2016
Time Temperature Dew Point Pressure Wind Wind Speed Wind Gust Humidity Rainfall Rate (Hourly)
00:02 1.9 °C 0.9 °C 1024.9 hPa NNW 1.6 km/h 3.2 km/h 93 % 0.0 mm
00:07 1.9 °C 0.7 °C 1024.9 hPa Calm   3.2 km/h 92 % 0.0 mm
00:12 1.9 °C 0.9 °C 1024.9 hPa NW 1.6 km/h 3.2 km/h 93 % 0.0 mm
00:17 1.8 °C 0.6 °C 1024.9 hPa WNW 1.6 km/h 3.2 km/h 92 % 0.0 mm
00:22 1.8 °C 0.8 °C 1024.9 hPa Calm   3.2 km/h 93 % 0.0 mm
00:27 1.8 °C 0.8 °C 1024.9 hPa Calm   3.2 km/h 93 % 0.0 mm
00:32 1.9 °C 0.9 °C 1024.9 hPa NW 1.6 km/h 1.6 km/h 93 % 0.0 mm
00:37 2.0 °C 1.0 °C 1024.9 hPa NW 1.6 km/h 1.6 km/h 93 % 0.0 mm
00:42 1.9 °C 0.7 °C 1024.9 hPa Calm   3.2 km/h 92 % 0.0 mm
00:47 1.6 °C 0.4 °C 1024.9 hPa WNW 1.6 km/h 3.2 km/h 92 % 0.0 mm
00:52 1.5 °C 0.5 °C 1024.9 hPa WNW 1.6 km/h 3.2 km/h 93 % 0.0 mm
00:57 1.4 °C 0.2 °C 1024.9 hPa Calm   3.2 km/h 92 % 0.0 mm
01:07 1.4 °C 0.2 °C 1024.9 hPa Calm   1.6 km/h 92 % 0.0 mm
01:12 1.2 °C 0.2 °C 1024.9 hPa WNW 1.6 km/h 1.6 km/h 93 % 0.0 mm
01:22 0.9 °C -0.1 °C 1024.9 hPa Calm   1.6 km/h 93 % 0.0 mm
01:27 0.9 °C 0.0 °C 1024.9 hPa Calm   1.6 km/h 94 % 0.0 mm
01:37 0.7 °C -0.2 °C 1024.9 hPa Calm     94 % 0.0 mm
01:42 0.8 °C 0.1 °C 1024.9 hPa Calm     95 % 0.0 mm
01:52 0.8 °C -0.1 °C 1024.6 hPa Calm     94 % 0.0 mm
01:57 0.7 °C -0.2 °C 1024.6 hPa Calm     94 % 0.0 mm
02:07 0.3 °C -0.6 °C 1024.6 hPa Calm     94 % 0.0 mm
02:12 0.2 °C -0.7 °C 1024.6 hPa Calm     94 % 0.0 mm
02:17 0.2 °C -0.5 °C 1024.6 hPa Calm     95 % 0.0 mm
02:22 0.3 °C -0.4 °C 1024.6 hPa Calm     95 % 0.0 mm
02:32 0.2 °C -0.5 °C 1024.6 hPa Calm     95 % 0.0 mm
02:37 0.1 °C -0.6 °C 1024.6 hPa Calm     95 % 0.0 mm
02:52 -0.1 °C -0.8 °C 1024.6 hPa Calm     95 % 0.0 mm
02:57 -0.2 °C -0.9 °C 1024.6 hPa Calm     95 % 0.0 mm
03:02 -0.3 °C -1.0 °C 1024.6 hPa Calm     95 % 0.0 mm
03:07 -0.3 °C -1.0 °C 1024.6 hPa Calm     95 % 0.0 mm
03:12 -0.3 °C -0.9 °C 1024.6 hPa Calm     96 % 0.0 mm
03:17 -0.4 °C -1.1 °C 1024.6 hPa Calm     95 % 0.0 mm
03:22 -0.4 °C -1.1 °C 1024.3 hPa Calm     95 % 0.0 mm
03:32 -0.4 °C -1.0 °C 1024.3 hPa Calm     96 % 0.0 mm
03:42 -0.5 °C -1.1 °C 1024.3 hPa Calm   1.6 km/h 96 % 0.0 mm
03:52 -0.6 °C -1.2 °C 1024.3 hPa Calm   1.6 km/h 96 % 0.0 mm
03:57 -0.6 °C -1.2 °C 1024.3 hPa Calm   1.6 km/h 96 % 0.0 mm
04:02 -0.6 °C -1.2 °C 1024.3 hPa Calm     96 % 0.0 mm
04:12 -0.4 °C -1.0 °C 1024.3 hPa Calm     96 % 0.0 mm
04:17 -0.5 °C -1.1 °C 1024.3 hPa Calm     96 % 0.0 mm
04:22 -0.6 °C -1.2 °C 1024.3 hPa Calm     96 % 0.0 mm
04:27 -0.6 °C -1.2 °C 1024.3 hPa Calm     96 % 0.0 mm
04:32 -0.6 °C -1.2 °C 1024.3 hPa Calm     96 % 0.0 mm
04:37 -0.7 °C -1.3 °C 1023.9 hPa Calm     96 % 0.0 mm
04:42 -0.7 °C -1.3 °C 1023.9 hPa Calm     96 % 0.0 mm
04:52 -0.7 °C -1.3 °C 1024.3 hPa Calm     96 % 0.0 mm
04:57 -0.6 °C -1.2 °C 1023.9 hPa Calm     96 % 0.0 mm
05:02 -0.6 °C -1.2 °C 1024.3 hPa Calm     96 % 0.0 mm
05:07 -0.7 °C -1.3 °C 1023.9 hPa Calm     96 % 0.0 mm
05:12 -0.8 °C -1.4 °C 1023.9 hPa Calm     96 % 0.0 mm
05:17 -0.8 °C -1.4 °C 1023.9 hPa Calm     96 % 0.0 mm
05:22 -0.7 °C -1.3 °C 1023.9 hPa Calm     96 % 0.0 mm
05:32 -0.8 °C -1.4 °C 1023.9 hPa Calm     96 % 0.0 mm
05:42 -0.8 °C -1.4 °C 1023.9 hPa Calm     96 % 0.0 mm
05:47 -0.8 °C -1.4 °C 1023.9 hPa Calm     96 % 0.0 mm
05:52 -1.0 °C -1.6 °C 1023.9 hPa Calm     96 % 0.0 mm
05:57 -1.1 °C -1.7 °C 1023.9 hPa Calm     96 % 0.0 mm
06:02 -1.2 °C -1.8 °C 1023.9 hPa Calm     96 % 0.0 mm
06:07 -1.2 °C -1.8 °C 1023.9 hPa Calm     96 % 0.0 mm
06:12 -1.1 °C -1.7 °C 1023.6 hPa Calm     96 % 0.0 mm
06:17 -1.1 °C -1.7 °C 1023.9 hPa Calm     96 % 0.0 mm
06:22 -1.2 °C -1.8 °C 1023.6 hPa Calm     96 % 0.0 mm
06:27 -1.4 °C -2.0 °C 1023.6 hPa Calm     96 % 0.0 mm
06:32 -1.5 °C -2.1 °C 1023.6 hPa Calm     96 % 0.0 mm
06:37 -1.5 °C -2.1 °C 1023.6 hPa Calm     96 % 0.0 mm
06:42 -1.4 °C -1.8 °C 1023.6 hPa Calm     97 % 0.0 mm
06:47 -1.3 °C -1.7 °C 1023.6 hPa Calm     97 % 0.0 mm
06:52 -1.4 °C -1.8 °C 1023.6 hPa Calm     97 % 0.0 mm
06:57 -1.5 °C -2.1 °C 1023.6 hPa Calm     96 % 0.0 mm
07:02 -1.6 °C -2.2 °C 1023.6 hPa Calm     96 % 0.0 mm
07:07 -1.6 °C -2.2 °C 1023.6 hPa Calm     96 % 0.0 mm
07:12 -1.7 °C -2.3 °C 1023.6 hPa Calm     96 % 0.0 mm
07:17 -1.7 °C -2.3 °C 1023.9 hPa Calm     96 % 0.0 mm
07:22 -1.8 °C -2.4 °C 1023.9 hPa Calm     96 % 0.0 mm
07:27 -1.8 °C -2.2 °C 1023.9 hPa Calm     97 % 0.0 mm
07:32 -1.9 °C -2.3 °C 1023.9 hPa Calm     97 % 0.0 mm
07:37 -1.9 °C -2.3 °C 1023.6 hPa Calm     97 % 0.0 mm
07:42 -2.0 °C -2.6 °C 1023.9 hPa Calm     96 % 0.0 mm
07:47 -2.2 °C -2.8 °C 1023.6 hPa Calm     96 % 0.0 mm
07:52 -2.3 °C -2.9 °C 1023.6 hPa Calm     96 % 0.0 mm
08:02 -2.5 °C -3.0 °C 1023.6 hPa Calm     96 % 0.0 mm
08:07 -2.5 °C -3.0 °C 1023.6 hPa Calm     96 % 0.0 mm
08:12 -2.4 °C -2.8 °C 1023.6 hPa Calm     97 % 0.0 mm
08:17 -2.4 °C -2.8 °C 1023.6 hPa Calm     97 % 0.0 mm
08:22 -2.3 °C -2.7 °C 1023.9 hPa Calm     97 % 0.0 mm
08:27 -2.2 °C -2.6 °C 1023.9 hPa Calm     97 % 0.0 mm
08:32 -2.2 °C -2.6 °C 1023.9 hPa Calm     97 % 0.0 mm
08:37 -2.1 °C -2.5 °C 1023.9 hPa Calm     97 % 0.0 mm
08:42 -1.9 °C -2.3 °C 1023.9 hPa Calm     97 % 0.0 mm
08:47 -1.8 °C -2.2 °C 1023.9 hPa Calm     97 % 0.0 mm
08:52 -1.6 °C -2.0 °C 1023.9 hPa Calm     97 % 0.0 mm
09:02 -1.3 °C -1.7 °C 1023.6 hPa Calm     97 % 0.0 mm
09:07 -1.2 °C -1.6 °C 1023.6 hPa Calm     97 % 0.0 mm
09:12 -1.1 °C -1.5 °C 1023.6 hPa Calm     97 % 0.0 mm
09:17 -1.2 °C -1.6 °C 1023.6 hPa Calm     97 % 0.0 mm
09:22 -1.1 °C -1.5 °C 1023.6 hPa East 1.6 km/h   97 % 0.0 mm
09:27 -1.0 °C -1.4 °C 1023.6 hPa Calm   3.2 km/h 97 % 0.0 mm
09:32 -1.0 °C -1.6 °C 1023.6 hPa Calm   3.2 km/h 96 % 0.0 mm
09:37 -0.9 °C -1.5 °C 1023.6 hPa Calm   3.2 km/h 96 % 0.0 mm
09:42 -0.9 °C -1.5 °C 1023.6 hPa Calm   3.2 km/h 96 % 0.0 mm
09:52 -0.9 °C -1.5 °C 1023.6 hPa Calm     96 % 0.0 mm
10:02 -0.9 °C -1.5 °C 1023.6 hPa Calm     96 % 0.0 mm
10:07 -0.8 °C -1.4 °C 1023.6 hPa Calm     96 % 0.0 mm
10:12 -0.8 °C -1.4 °C 1023.6 hPa Calm     96 % 0.0 mm
10:17 -0.7 °C -1.3 °C 1023.6 hPa Calm     96 % 0.0 mm
10:22 -0.6 °C -1.2 °C 1023.6 hPa Calm     96 % 0.0 mm
10:27 -0.6 °C -1.2 °C 1023.6 hPa Calm     96 % 0.0 mm
10:32 -0.6 °C -1.2 °C 1023.6 hPa Calm     96 % 0.0 mm
10:37 -0.6 °C -1.2 °C 1023.2 hPa Calm     96 % 0.0 mm
10:42 -0.6 °C -1.2 °C 1023.2 hPa Calm     96 % 0.0 mm
10:47 -0.3 °C -0.7 °C 1023.2 hPa Calm     97 % 0.0 mm
10:57 -0.2 °C -0.8 °C 1023.2 hPa Calm     96 % 0.0 mm
11:02 -0.2 °C -0.6 °C 1023.2 hPa East 1.6 km/h   97 % 0.0 mm
11:07 -0.1 °C -0.5 °C 1023.2 hPa Calm   3.2 km/h 97 % 0.0 mm
11:17 0.4 °C 0.0 °C 1023.2 hPa Calm   3.2 km/h 97 % 0.0 mm
11:22 0.6 °C 0.2 °C 1023.2 hPa Calm   1.6 km/h 97 % 0.0 mm
11:27 0.6 °C 0.2 °C 1023.2 hPa Calm   1.6 km/h 97 % 0.0 mm
11:32 0.7 °C 0.3 °C 1023.6 hPa Calm   1.6 km/h 97 % 0.0 mm
11:42 1.0 °C 0.6 °C 1023.2 hPa Calm   1.6 km/h 97 % 0.0 mm
11:52 1.3 °C 0.9 °C 1023.2 hPa Calm   1.6 km/h 97 % 0.0 mm
11:57 1.4 °C 1.0 °C 1023.2 hPa Calm     97 % 0.0 mm
12:02 1.6 °C 1.2 °C 1023.6 hPa SSW 1.6 km/h 1.6 km/h 97 % 0.0 mm
12:07 1.7 °C 1.3 °C 1023.2 hPa Calm   3.2 km/h 97 % 0.0 mm
12:12 1.8 °C 1.4 °C 1023.2 hPa SSE 1.6 km/h 3.2 km/h 97 % 0.0 mm
12:17 2.0 °C 1.6 °C 1023.2 hPa SE 1.6 km/h 3.2 km/h 97 % 0.0 mm
12:22 2.2 °C 1.8 °C 1023.2 hPa Calm   3.2 km/h 97 % 0.0 mm
12:32 2.6 °C 2.2 °C 1023.2 hPa Calm   3.2 km/h 97 % 0.3 mm
12:37 2.8 °C 2.4 °C 1023.2 hPa SE 1.6 km/h 3.2 km/h 97 % 0.3 mm
12:42 2.8 °C 2.4 °C 1022.9 hPa Calm   3.2 km/h 97 % 0.3 mm
12:47 3.0 °C 2.6 °C 1022.9 hPa Calm   3.2 km/h 97 % 0.3 mm
12:52 3.2 °C 2.8 °C 1022.9 hPa Calm   3.2 km/h 97 % 0.3 mm
12:57 3.4 °C 3.0 °C 1022.9 hPa Calm     97 % 0.3 mm
13:02 3.6 °C 3.2 °C 1022.9 hPa Calm   3.2 km/h 97 % 0.3 mm
13:12 3.8 °C 3.4 °C 1022.6 hPa Calm   3.2 km/h 97 % 0.3 mm
13:17 3.8 °C 3.4 °C 1022.6 hPa Calm   3.2 km/h 97 % 0.3 mm
13:22 3.9 °C 3.5 °C 1022.6 hPa Calm   3.2 km/h 97 % 0.0 mm
13:27 4.1 °C 3.7 °C 1022.6 hPa East 1.6 km/h 4.8 km/h 97 % 0.0 mm
13:32 4.2 °C 3.8 °C 1022.2 hPa Calm   4.8 km/h 97 % 0.0 mm
13:42 4.4 °C 4.0 °C 1022.2 hPa Calm   6.4 km/h 97 % 0.0 mm
13:47 4.4 °C 4.0 °C 1022.2 hPa East 1.6 km/h 6.4 km/h 97 % 0.0 mm
13:52 4.5 °C 4.1 °C 1022.2 hPa SE 1.6 km/h 6.4 km/h 97 % 0.0 mm
13:57 4.6 °C 4.2 °C 1022.2 hPa ESE 1.6 km/h 4.8 km/h 97 % 0.0 mm
14:02 4.7 °C 4.3 °C 1022.2 hPa SSE 1.6 km/h 4.8 km/h 97 % 0.0 mm
14:07 4.7 °C 4.3 °C 1022.2 hPa SE 3.2 km/h 4.8 km/h 97 % 0.0 mm
14:12 4.7 °C 4.3 °C 1021.9 hPa ESE 1.6 km/h 3.2 km/h 97 % 0.0 mm
14:17 4.8 °C 4.4 °C 1021.9 hPa Calm   6.4 km/h 97 % 0.0 mm
14:22 4.9 °C 4.5 °C 1021.9 hPa Calm   6.4 km/h 97 % 0.0 mm
14:32 5.2 °C 4.6 °C 1021.9 hPa Calm   3.2 km/h 96 % 0.0 mm
14:37 5.3 °C 4.7 °C 1021.9 hPa SE 1.6 km/h 3.2 km/h 96 % 0.0 mm
14:42 5.3 °C 4.7 °C 1021.6 hPa Calm   6.4 km/h 96 % 0.0 mm
14:47 5.4 °C 4.7 °C 1021.6 hPa ESE 3.2 km/h 6.4 km/h 95 % 0.0 mm
14:52 5.5 °C 4.8 °C 1021.6 hPa Calm   6.4 km/h 95 % 0.0 mm
15:02 5.5 °C 4.6 °C 1021.6 hPa Calm   6.4 km/h 94 % 0.0 mm
15:07 5.5 °C 4.6 °C 1021.6 hPa East 1.6 km/h 6.4 km/h 94 % 0.0 mm
15:12 5.4 °C 4.4 °C 1021.6 hPa Calm   6.4 km/h 93 % 0.0 mm
15:17 5.3 °C 4.3 °C 1021.6 hPa Calm   6.4 km/h 93 % 0.0 mm
15:22 5.3 °C 4.3 °C 1021.6 hPa Calm   6.4 km/h 93 % 0.0 mm
15:27 5.4 °C 4.4 °C 1021.6 hPa Calm   6.4 km/h 93 % 0.0 mm
15:32 5.4 °C 4.4 °C 1021.6 hPa Calm   6.4 km/h 93 % 0.0 mm
15:42 5.4 °C 4.4 °C 1021.6 hPa Calm   3.2 km/h 93 % 0.0 mm
15:52 5.4 °C 4.4 °C 1021.6 hPa Calm   3.2 km/h 93 % 0.0 mm
15:57 5.3 °C 4.3 °C 1021.6 hPa Calm   4.8 km/h 93 % 0.0 mm
16:02 5.3 °C 4.3 °C 1021.6 hPa Calm   4.8 km/h 93 % 0.0 mm
16:12 5.3 °C 4.3 °C 1021.6 hPa Calm   3.2 km/h 93 % 0.0 mm
16:17 5.3 °C 4.3 °C 1021.6 hPa Calm   6.4 km/h 93 % 0.0 mm
16:22 5.3 °C 4.3 °C 1021.6 hPa Calm   6.4 km/h 93 % 0.0 mm
16:27 5.3 °C 4.3 °C 1021.6 hPa ESE 1.6 km/h 6.4 km/h 93 % 0.0 mm
16:32 5.3 °C 4.3 °C 1021.6 hPa Calm   1.6 km/h 93 % 0.0 mm
16:42 5.3 °C 4.3 °C 1021.6 hPa Calm   1.6 km/h 93 % 0.0 mm
16:47 5.2 °C 4.2 °C 1021.2 hPa Calm   4.8 km/h 93 % 0.0 mm
16:57 5.2 °C 4.2 °C 1021.2 hPa Calm   4.8 km/h 93 % 0.0 mm
17:02 5.2 °C 4.2 °C 1021.2 hPa Calm   4.8 km/h 93 % 0.0 mm
17:12 5.2 °C 4.2 °C 1021.2 hPa Calm   4.8 km/h 93 % 0.3 mm
17:17 5.1 °C 4.1 °C 1021.6 hPa Calm   3.2 km/h 93 % 0.3 mm
17:22 5.1 °C 4.1 °C 1021.6 hPa South 1.6 km/h 1.6 km/h 93 % 0.3 mm
17:27 5.1 °C 4.1 °C 1021.6 hPa Calm   1.6 km/h 93 % 0.3 mm
17:32 5.1 °C 4.1 °C 1021.6 hPa Calm   1.6 km/h 93 % 0.5 mm
17:42 5.1 °C 4.2 °C 1021.6 hPa Calm   1.6 km/h 94 % 0.5 mm
18:02 4.9 °C 4.0 °C 1021.2 hPa Calm   4.8 km/h 94 % 0.8 mm
18:12 4.9 °C 4.0 °C 1021.2 hPa Calm   3.2 km/h 94 % 0.5 mm
18:17 4.9 °C 4.0 °C 1021.6 hPa Calm   3.2 km/h 94 % 0.5 mm
18:22 4.9 °C 4.0 °C 1021.6 hPa Calm   3.2 km/h 94 % 0.5 mm
18:27 4.9 °C 4.0 °C 1021.2 hPa SE 1.6 km/h 3.2 km/h 94 % 0.5 mm
18:37 4.9 °C 4.2 °C 1021.2 hPa Calm   4.8 km/h 95 % 0.5 mm
18:42 4.9 °C 4.2 °C 1021.6 hPa Calm   4.8 km/h 95 % 0.5 mm
18:52 4.9 °C 4.2 °C 1021.2 hPa Calm   1.6 km/h 95 % 0.5 mm
18:57 4.9 °C 4.2 °C 1021.2 hPa Calm   1.6 km/h 95 % 0.3 mm
19:02 4.9 °C 4.2 °C 1021.6 hPa Calm   1.6 km/h 95 % 0.3 mm
19:07 4.9 °C 4.2 °C 1021.6 hPa Calm   1.6 km/h 95 % 0.3 mm
19:12 4.9 °C 4.2 °C 1021.6 hPa Calm   1.6 km/h 95 % 0.3 mm
19:17 4.9 °C 4.2 °C 1021.6 hPa Calm   1.6 km/h 95 % 0.3 mm
19:22 4.9 °C 4.2 °C 1021.6 hPa Calm   1.6 km/h 95 % 0.5 mm
19:32 5.0 °C 4.3 °C 1021.6 hPa Calm     95 % 0.3 mm
19:42 5.1 °C 4.4 °C 1021.9 hPa Calm     95 % 0.5 mm
19:52 5.1 °C 4.4 °C 1021.6 hPa Calm     95 % 0.5 mm
19:57 5.1 °C 4.4 °C 1021.6 hPa Calm     95 % 0.5 mm
20:02 5.1 °C 4.4 °C 1021.6 hPa Calm     95 % 0.8 mm
20:12 5.1 °C 4.4 °C 1021.6 hPa Calm     95 % 1.0 mm
20:17 5.1 °C 4.5 °C 1021.6 hPa Calm     96 % 1.0 mm
20:22 5.1 °C 4.5 °C 1021.6 hPa Calm     96 % 0.8 mm
20:27 5.1 °C 4.5 °C 1021.6 hPa SE 1.6 km/h 1.6 km/h 96 % 1.0 mm
20:32 5.2 °C 4.6 °C 1021.6 hPa Calm   1.6 km/h 96 % 0.8 mm
20:37 5.2 °C 4.6 °C 1021.6 hPa Calm   1.6 km/h 96 % 0.8 mm
20:42 5.2 °C 4.6 °C 1021.6 hPa Calm   3.2 km/h 96 % 0.8 mm
20:52 5.2 °C 4.6 °C 1021.6 hPa Calm   3.2 km/h 96 % 0.8 mm
20:57 5.2 °C 4.6 °C 1021.6 hPa Calm   1.6 km/h 96 % 0.8 mm
21:02 5.2 °C 4.6 °C 1021.6 hPa Calm   1.6 km/h 96 % 0.5 mm
21:07 5.2 °C 4.6 °C 1021.6 hPa Calm   1.6 km/h 96 % 0.5 mm
21:17 5.2 °C 4.6 °C 1021.6 hPa Calm   1.6 km/h 96 % 0.5 mm
21:22 5.2 °C 4.6 °C 1021.6 hPa Calm   3.2 km/h 96 % 0.5 mm
21:32 5.2 °C 4.6 °C 1021.6 hPa Calm   4.8 km/h 96 % 0.3 mm
21:37 5.2 °C 4.6 °C 1021.6 hPa Calm   4.8 km/h 96 % 0.3 mm
21:42 5.2 °C 4.6 °C 1021.6 hPa South 4.8 km/h 4.8 km/h 96 % 0.3 mm
21:47 5.2 °C 4.6 °C 1021.6 hPa Calm   4.8 km/h 96 % 0.3 mm
21:52 5.2 °C 4.6 °C 1021.6 hPa Calm   4.8 km/h 96 % 0.0 mm
21:57 5.2 °C 4.6 °C 1021.6 hPa Calm   4.8 km/h 96 % 0.0 mm
22:02 5.2 °C 4.6 °C 1021.6 hPa Calm   1.6 km/h 96 % 0.3 mm
22:12 5.2 °C 4.6 °C 1021.6 hPa Calm   3.2 km/h 96 % 0.3 mm
22:27 5.2 °C 4.6 °C 1021.6 hPa SSE 3.2 km/h 6.4 km/h 96 % 1.0 mm
22:32 5.2 °C 4.6 °C 1021.6 hPa Calm   6.4 km/h 96 % 1.3 mm
22:37 5.2 °C 4.6 °C 1021.6 hPa Calm   8.0 km/h 96 % 1.3 mm
22:47 5.2 °C 4.8 °C 1021.6 hPa SE 1.6 km/h 8.0 km/h 97 % 1.3 mm
22:52 5.2 °C 4.8 °C 1021.6 hPa SE 1.6 km/h 8.0 km/h 97 % 1.3 mm
22:57 5.2 °C 4.8 °C 1021.6 hPa Calm   8.0 km/h 97 % 1.3 mm
23:02 5.2 °C 4.8 °C 1021.6 hPa SE 1.6 km/h 8.0 km/h 97 % 1.0 mm
23:12 5.2 °C 4.8 °C 1021.6 hPa SSE 1.6 km/h 6.4 km/h 97 % 1.3 mm
23:17 5.2 °C 4.8 °C 1021.6 hPa SE 1.6 km/h 6.4 km/h 97 % 0.5 mm
23:27 5.2 °C 4.8 °C 1021.6 hPa SE 1.6 km/h 4.8 km/h 97 % 0.3 mm
23:32 5.2 °C 4.8 °C 1021.6 hPa Calm   4.8 km/h 97 % 0.3 mm
23:37 5.2 °C 4.8 °C 1021.6 hPa SSE 3.2 km/h 4.8 km/h 97 % 0.5 mm
23:47 5.2 °C 4.8 °C 1021.6 hPa Calm   3.2 km/h 97 % 0.5 mm
23:52 5.2 °C 4.8 °C 1021.6 hPa Calm   4.8 km/h 97 % 0.8 mm
23:57 5.2 °C 4.8 °C 1021.2 hPa SE 1.6 km/h 4.8 km/h 97 % 0.8 mm
Meteo18
Compliments of Weather Underground - 4 mb

Script developed by  Jim McMurry - jmcmurry@mwt.net Adapted for the template by  Wim van der Kuil - Leuven-Template.eu

You find our weather info also at:

European Weather Network

Weather Underground

Equipment we use:

Weather-station
Davis Vue

Weather-program
Meteohub

Weather-server
Raspberry PI 2 B+

Provider
1 and 1

Davis Vue

Meteohub

Raspberry PI 2 B+

1 and 1